sensor_id;sensor_type;location;lat;lon;timestamp;temperature;humidity
75217;HTU21D;63800;51.972;5.682;2023-08-12T00:00:55;20.40;118.99
75217;HTU21D;63800;51.972;5.682;2023-08-12T00:03:21;20.34;118.99
75217;HTU21D;63800;51.972;5.682;2023-08-12T00:05:47;20.26;118.99
75217;HTU21D;63800;51.972;5.682;2023-08-12T00:08:12;20.32;118.99
75217;HTU21D;63800;51.972;5.682;2023-08-12T00:10:38;20.29;118.99
75217;HTU21D;63800;51.972;5.682;2023-08-12T00:13:03;20.28;118.99
75217;HTU21D;63800;51.972;5.682;2023-08-12T00:15:29;20.40;118.99
75217;HTU21D;63800;51.972;5.682;2023-08-12T00:17:54;20.28;118.99
75217;HTU21D;63800;51.972;5.682;2023-08-12T00:20:20;20.27;118.99
75217;HTU21D;63800;51.972;5.682;2023-08-12T00:22:45;20.22;118.99
75217;HTU21D;63800;51.972;5.682;2023-08-12T00:25:10;20.27;118.99
75217;HTU21D;63800;51.972;5.682;2023-08-12T00:27:36;20.30;118.99
75217;HTU21D;63800;51.972;5.682;2023-08-12T00:30:03;20.28;118.99
75217;HTU21D;63800;51.972;5.682;2023-08-12T00:32:29;20.11;118.99
75217;HTU21D;63800;51.972;5.682;2023-08-12T00:34:55;20.37;118.99
75217;HTU21D;63800;51.972;5.682;2023-08-12T00:37:20;20.29;118.99
75217;HTU21D;63800;51.972;5.682;2023-08-12T00:39:46;20.20;118.99
75217;HTU21D;63800;51.972;5.682;2023-08-12T00:42:11;20.26;118.99
75217;HTU21D;63800;51.972;5.682;2023-08-12T00:44:36;20.36;118.99
75217;HTU21D;63800;51.972;5.682;2023-08-12T00:47:02;20.24;118.99
75217;HTU21D;63800;51.972;5.682;2023-08-12T00:49:28;20.25;118.99
75217;HTU21D;63800;51.972;5.682;2023-08-12T00:51:54;20.29;118.99
75217;HTU21D;63800;51.972;5.682;2023-08-12T00:54:21;20.26;118.99
75217;HTU21D;63800;51.972;5.682;2023-08-12T00:56:53;20.35;118.99
75217;HTU21D;63800;51.972;5.682;2023-08-12T00:59:19;20.48;118.99
75217;HTU21D;63800;51.972;5.682;2023-08-12T01:01:46;20.33;118.99
75217;HTU21D;63800;51.972;5.682;2023-08-12T01:04:12;20.27;118.99
75217;HTU21D;63800;51.972;5.682;2023-08-12T01:06:38;20.35;118.99
75217;HTU21D;63800;51.972;5.682;2023-08-12T01:09:04;20.36;118.99
75217;HTU21D;63800;51.972;5.682;2023-08-12T01:14:12;20.25;118.99
75217;HTU21D;63800;51.972;5.682;2023-08-12T01:16:42;20.27;118.99
75217;HTU21D;63800;51.972;5.682;2023-08-12T01:19:11;20.31;118.99
75217;HTU21D;63800;51.972;5.682;2023-08-12T01:21:43;20.26;118.99
75217;HTU21D;63800;51.972;5.682;2023-08-12T01:24:09;20.16;118.99
75217;HTU21D;63800;51.972;5.682;2023-08-12T01:26:34;20.11;118.99
75217;HTU21D;63800;51.972;5.682;2023-08-12T01:29:00;20.10;118.99
75217;HTU21D;63800;51.972;5.682;2023-08-12T01:31:36;20.10;118.99
75217;HTU21D;63800;51.972;5.682;2023-08-12T01:34:28;20.16;118.99
75217;HTU21D;63800;51.972;5.682;2023-08-12T01:36:56;20.20;118.99
75217;HTU21D;63800;51.972;5.682;2023-08-12T01:39:23;20.16;118.99
75217;HTU21D;63800;51.972;5.682;2023-08-12T01:41:51;20.28;118.99
75217;HTU21D;63800;51.972;5.682;2023-08-12T01:44:17;20.18;118.99
75217;HTU21D;63800;51.972;5.682;2023-08-12T01:46:44;20.22;118.99
75217;HTU21D;63800;51.972;5.682;2023-08-12T01:49:09;20.26;118.99
75217;HTU21D;63800;51.972;5.682;2023-08-12T01:51:35;20.19;118.99
75217;HTU21D;63800;51.972;5.682;2023-08-12T01:54:00;20.13;118.99
75217;HTU21D;63800;51.972;5.682;2023-08-12T01:56:25;20.12;118.99
75217;HTU21D;63800;51.972;5.682;2023-08-12T01:58:51;20.11;118.99
75217;HTU21D;63800;51.972;5.682;2023-08-12T02:01:16;20.09;118.99
75217;HTU21D;63800;51.972;5.682;2023-08-12T02:03:42;20.14;118.99
75217;HTU21D;63800;51.972;5.682;2023-08-12T02:06:07;20.15;118.99
75217;HTU21D;63800;51.972;5.682;2023-08-12T02:08:32;20.17;118.99
75217;HTU21D;63800;51.972;5.682;2023-08-12T02:10:58;20.12;118.99
75217;HTU21D;63800;51.972;5.682;2023-08-12T02:13:23;20.14;118.99
75217;HTU21D;63800;51.972;5.682;2023-08-12T02:15:49;20.12;118.99
75217;HTU21D;63800;51.972;5.682;2023-08-12T02:18:14;20.14;118.99
75217;HTU21D;63800;51.972;5.682;2023-08-12T02:20:43;20.16;118.99
75217;HTU21D;63800;51.972;5.682;2023-08-12T02:23:08;19.92;118.99
75217;HTU21D;63800;51.972;5.682;2023-08-12T02:25:34;20.06;118.99
75217;HTU21D;63800;51.972;5.682;2023-08-12T02:27:59;20.07;118.99
75217;HTU21D;63800;51.972;5.682;2023-08-12T02:30:24;19.98;118.99
75217;HTU21D;63800;51.972;5.682;2023-08-12T02:32:50;20.03;118.99
75217;HTU21D;63800;51.972;5.682;2023-08-12T02:35:18;20.17;118.99
75217;HTU21D;63800;51.972;5.682;2023-08-12T02:37:43;19.99;118.99
75217;HTU21D;63800;51.972;5.682;2023-08-12T02:40:09;20.06;118.99
75217;HTU21D;63800;51.972;5.682;2023-08-12T02:42:36;20.07;118.99
75217;HTU21D;63800;51.972;5.682;2023-08-12T02:45:01;20.07;118.99
75217;HTU21D;63800;51.972;5.682;2023-08-12T02:47:27;20.07;118.99
75217;HTU21D;63800;51.972;5.682;2023-08-12T02:49:53;20.02;118.99
75217;HTU21D;63800;51.972;5.682;2023-08-12T02:52:18;20.00;118.99
75217;HTU21D;63800;51.972;5.682;2023-08-12T02:54:43;20.05;118.99
75217;HTU21D;63800;51.972;5.682;2023-08-12T02:57:09;20.06;118.99
75217;HTU21D;63800;51.972;5.682;2023-08-12T02:59:34;20.07;118.99
75217;HTU21D;63800;51.972;5.682;2023-08-12T03:02:00;20.01;118.99
75217;HTU21D;63800;51.972;5.682;2023-08-12T03:04:25;20.07;118.99
75217;HTU21D;63800;51.972;5.682;2023-08-12T03:06:51;20.11;118.99
75217;HTU21D;63800;51.972;5.682;2023-08-12T03:09:16;20.10;118.99
75217;HTU21D;63800;51.972;5.682;2023-08-12T03:11:43;20.11;118.99
75217;HTU21D;63800;51.972;5.682;2023-08-12T03:14:09;20.09;118.99
75217;HTU21D;63800;51.972;5.682;2023-08-12T03:16:34;20.10;118.99
75217;HTU21D;63800;51.972;5.682;2023-08-12T03:19:00;20.17;118.99
75217;HTU21D;63800;51.972;5.682;2023-08-12T03:21:26;20.14;118.99
75217;HTU21D;63800;51.972;5.682;2023-08-12T03:23:51;20.04;118.99
75217;HTU21D;63800;51.972;5.682;2023-08-12T03:26:16;20.09;118.99
75217;HTU21D;63800;51.972;5.682;2023-08-12T03:28:42;20.15;118.99
75217;HTU21D;63800;51.972;5.682;2023-08-12T03:31:07;20.17;118.99
75217;HTU21D;63800;51.972;5.682;2023-08-12T03:33:33;20.12;118.99
75217;HTU21D;63800;51.972;5.682;2023-08-12T03:35:59;20.03;118.99
75217;HTU21D;63800;51.972;5.682;2023-08-12T03:38:24;20.09;118.99
75217;HTU21D;63800;51.972;5.682;2023-08-12T03:40:50;20.05;118.99
75217;HTU21D;63800;51.972;5.682;2023-08-12T03:43:15;20.02;118.99
75217;HTU21D;63800;51.972;5.682;2023-08-12T03:45:44;20.11;118.99
75217;HTU21D;63800;51.972;5.682;2023-08-12T03:48:10;20.06;118.99
75217;HTU21D;63800;51.972;5.682;2023-08-12T03:50:37;20.06;118.99
75217;HTU21D;63800;51.972;5.682;2023-08-12T03:53:03;20.21;118.99
75217;HTU21D;63800;51.972;5.682;2023-08-12T03:55:35;20.11;118.99
75217;HTU21D;63800;51.972;5.682;2023-08-12T03:58:01;19.97;118.99
75217;HTU21D;63800;51.972;5.682;2023-08-12T04:00:27;20.06;118.99
75217;HTU21D;63800;51.972;5.682;2023-08-12T04:02:53;20.01;118.99
75217;HTU21D;63800;51.972;5.682;2023-08-12T04:05:18;20.03;118.99
75217;HTU21D;63800;51.972;5.682;2023-08-12T04:07:44;20.06;118.99
75217;HTU21D;63800;51.972;5.682;2023-08-12T04:10:09;20.09;118.99
75217;HTU21D;63800;51.972;5.682;2023-08-12T04:12:35;20.12;118.99
75217;HTU21D;63800;51.972;5.682;2023-08-12T04:15:01;20.06;118.99
75217;HTU21D;63800;51.972;5.682;2023-08-12T04:17:29;20.12;118.99
75217;HTU21D;63800;51.972;5.682;2023-08-12T04:19:55;20.16;118.99
75217;HTU21D;63800;51.972;5.682;2023-08-12T04:22:20;20.05;118.99
75217;HTU21D;63800;51.972;5.682;2023-08-12T04:24:45;20.15;118.99
75217;HTU21D;63800;51.972;5.682;2023-08-12T04:27:11;20.15;118.99
75217;HTU21D;63800;51.972;5.682;2023-08-12T04:29:36;20.17;118.99
75217;HTU21D;63800;51.972;5.682;2023-08-12T04:32:02;20.15;118.99
75217;HTU21D;63800;51.972;5.682;2023-08-12T04:34:27;20.13;118.99
75217;HTU21D;63800;51.972;5.682;2023-08-12T04:36:53;20.11;118.99
75217;HTU21D;63800;51.972;5.682;2023-08-12T04:39:18;20.19;118.99
75217;HTU21D;63800;51.972;5.682;2023-08-12T04:41:44;20.19;118.99
75217;HTU21D;63800;51.972;5.682;2023-08-12T04:44:09;20.06;118.99
75217;HTU21D;63800;51.972;5.682;2023-08-12T04:46:35;20.19;118.99
75217;HTU21D;63800;51.972;5.682;2023-08-12T04:49:00;20.19;118.99
75217;HTU21D;63800;51.972;5.682;2023-08-12T04:51:25;20.18;118.99
75217;HTU21D;63800;51.972;5.682;2023-08-12T04:53:51;20.32;118.99
75217;HTU21D;63800;51.972;5.682;2023-08-12T04:56:16;20.35;118.99
75217;HTU21D;63800;51.972;5.682;2023-08-12T04:58:42;20.33;118.99
75217;HTU21D;63800;51.972;5.682;2023-08-12T05:01:08;20.27;118.99
75217;HTU21D;63800;51.972;5.682;2023-08-12T05:03:33;20.21;118.99
75217;HTU21D;63800;51.972;5.682;2023-08-12T05:05:59;20.33;118.99
75217;HTU21D;63800;51.972;5.682;2023-08-12T05:08:24;20.06;118.99
75217;HTU21D;63800;51.972;5.682;2023-08-12T05:10:50;20.02;118.99
75217;HTU21D;63800;51.972;5.682;2023-08-12T05:13:16;20.05;118.99
75217;HTU21D;63800;51.972;5.682;2023-08-12T05:15:41;20.16;118.99
75217;HTU21D;63800;51.972;5.682;2023-08-12T05:18:06;20.14;118.99
75217;HTU21D;63800;51.972;5.682;2023-08-12T05:20:32;20.07;118.99
75217;HTU21D;63800;51.972;5.682;2023-08-12T05:22:58;20.17;118.99
75217;HTU21D;63800;51.972;5.682;2023-08-12T05:25:23;20.13;118.99
75217;HTU21D;63800;51.972;5.682;2023-08-12T05:27:49;20.06;118.99
75217;HTU21D;63800;51.972;5.682;2023-08-12T05:30:15;19.84;118.99
75217;HTU21D;63800;51.972;5.682;2023-08-12T05:32:40;19.81;118.99
75217;HTU21D;63800;51.972;5.682;2023-08-12T05:35:06;19.81;118.99
75217;HTU21D;63800;51.972;5.682;2023-08-12T05:37:32;19.97;118.99
75217;HTU21D;63800;51.972;5.682;2023-08-12T05:39:57;19.91;118.99
75217;HTU21D;63800;51.972;5.682;2023-08-12T05:42:22;19.66;118.99
75217;HTU21D;63800;51.972;5.682;2023-08-12T05:44:48;19.56;118.99
75217;HTU21D;63800;51.972;5.682;2023-08-12T05:47:13;19.75;118.99
75217;HTU21D;63800;51.972;5.682;2023-08-12T05:49:39;19.53;118.99
75217;HTU21D;63800;51.972;5.682;2023-08-12T05:52:04;19.52;118.99
75217;HTU21D;63800;51.972;5.682;2023-08-12T05:54:30;19.72;118.99
75217;HTU21D;63800;51.972;5.682;2023-08-12T05:56:55;19.57;118.99
75217;HTU21D;63800;51.972;5.682;2023-08-12T05:59:21;19.48;118.99
75217;HTU21D;63800;51.972;5.682;2023-08-12T06:01:47;19.61;118.99
75217;HTU21D;63800;51.972;5.682;2023-08-12T06:04:12;19.56;118.99
75217;HTU21D;63800;51.972;5.682;2023-08-12T06:06:38;19.51;118.99
75217;HTU21D;63800;51.972;5.682;2023-08-12T06:09:03;19.36;118.99
75217;HTU21D;63800;51.972;5.682;2023-08-12T06:11:29;19.35;118.99
75217;HTU21D;63800;51.972;5.682;2023-08-12T06:13:54;19.39;118.99
75217;HTU21D;63800;51.972;5.682;2023-08-12T06:16:19;19.51;118.99
75217;HTU21D;63800;51.972;5.682;2023-08-12T06:18:45;19.54;118.99
75217;HTU21D;63800;51.972;5.682;2023-08-12T06:21:10;19.43;118.99
75217;HTU21D;63800;51.972;5.682;2023-08-12T06:23:36;19.39;118.99
75217;HTU21D;63800;51.972;5.682;2023-08-12T06:26:01;19.61;118.99
75217;HTU21D;63800;51.972;5.682;2023-08-12T06:28:27;19.41;118.99
75217;HTU21D;63800;51.972;5.682;2023-08-12T06:30:52;19.29;118.99
75217;HTU21D;63800;51.972;5.682;2023-08-12T06:33:18;19.41;118.99
75217;HTU21D;63800;51.972;5.682;2023-08-12T06:35:44;19.53;118.99
75217;HTU21D;63800;51.972;5.682;2023-08-12T06:38:09;19.48;118.99
75217;HTU21D;63800;51.972;5.682;2023-08-12T06:40:35;19.60;118.99
75217;HTU21D;63800;51.972;5.682;2023-08-12T06:43:01;19.54;118.99
75217;HTU21D;63800;51.972;5.682;2023-08-12T06:45:26;19.29;118.99
75217;HTU21D;63800;51.972;5.682;2023-08-12T06:47:51;19.43;118.99
75217;HTU21D;63800;51.972;5.682;2023-08-12T06:50:17;19.44;118.99
75217;HTU21D;63800;51.972;5.682;2023-08-12T06:52:42;19.52;118.99
75217;HTU21D;63800;51.972;5.682;2023-08-12T06:55:08;19.56;118.99
75217;HTU21D;63800;51.972;5.682;2023-08-12T06:57:33;19.42;118.99
75217;HTU21D;63800;51.972;5.682;2023-08-12T06:59:59;19.44;118.99
75217;HTU21D;63800;51.972;5.682;2023-08-12T07:02:24;19.67;118.99
75217;HTU21D;63800;51.972;5.682;2023-08-12T07:04:50;19.63;118.99
75217;HTU21D;63800;51.972;5.682;2023-08-12T07:07:15;19.61;118.99
75217;HTU21D;63800;51.972;5.682;2023-08-12T07:09:40;19.67;118.99
75217;HTU21D;63800;51.972;5.682;2023-08-12T07:12:06;19.72;118.99
75217;HTU21D;63800;51.972;5.682;2023-08-12T07:14:32;19.72;118.99
75217;HTU21D;63800;51.972;5.682;2023-08-12T07:16:57;19.60;118.99
75217;HTU21D;63800;51.972;5.682;2023-08-12T07:19:23;19.60;118.99
75217;HTU21D;63800;51.972;5.682;2023-08-12T07:21:48;19.76;118.99
75217;HTU21D;63800;51.972;5.682;2023-08-12T07:24:13;19.67;118.99
75217;HTU21D;63800;51.972;5.682;2023-08-12T07:26:39;19.74;118.99
75217;HTU21D;63800;51.972;5.682;2023-08-12T07:29:04;19.69;118.99
75217;HTU21D;63800;51.972;5.682;2023-08-12T07:31:30;19.76;118.99
75217;HTU21D;63800;51.972;5.682;2023-08-12T07:33:55;19.55;118.99
75217;HTU21D;63800;51.972;5.682;2023-08-12T07:36:21;19.65;118.99
75217;HTU21D;63800;51.972;5.682;2023-08-12T07:38:46;19.60;118.99
75217;HTU21D;63800;51.972;5.682;2023-08-12T07:41:12;19.41;118.99
75217;HTU21D;63800;51.972;5.682;2023-08-12T07:43:37;19.43;118.99
75217;HTU21D;63800;51.972;5.682;2023-08-12T07:46:02;19.50;118.99
75217;HTU21D;63800;51.972;5.682;2023-08-12T07:48:29;19.65;118.99
75217;HTU21D;63800;51.972;5.682;2023-08-12T07:50:58;19.24;118.99
75217;HTU21D;63800;51.972;5.682;2023-08-12T07:53:24;19.02;118.99
75217;HTU21D;63800;51.972;5.682;2023-08-12T07:55:49;19.23;118.99
75217;HTU21D;63800;51.972;5.682;2023-08-12T07:58:15;19.35;118.99
75217;HTU21D;63800;51.972;5.682;2023-08-12T08:00:40;19.33;118.99
75217;HTU21D;63800;51.972;5.682;2023-08-12T08:03:06;19.50;118.99
75217;HTU21D;63800;51.972;5.682;2023-08-12T08:05:31;19.56;118.99
75217;HTU21D;63800;51.972;5.682;2023-08-12T08:07:57;19.42;118.99
75217;HTU21D;63800;51.972;5.682;2023-08-12T08:10:22;19.30;118.99
75217;HTU21D;63800;51.972;5.682;2023-08-12T08:12:48;19.29;118.99
75217;HTU21D;63800;51.972;5.682;2023-08-12T08:15:13;19.23;118.99
75217;HTU21D;63800;51.972;5.682;2023-08-12T08:17:39;19.54;118.99
75217;HTU21D;63800;51.972;5.682;2023-08-12T08:20:04;19.53;118.99
75217;HTU21D;63800;51.972;5.682;2023-08-12T08:22:31;19.57;118.99
75217;HTU21D;63800;51.972;5.682;2023-08-12T08:24:56;19.72;118.99
75217;HTU21D;63800;51.972;5.682;2023-08-12T08:27:22;19.85;118.99
75217;HTU21D;63800;51.972;5.682;2023-08-12T08:29:47;20.02;118.99
75217;HTU21D;63800;51.972;5.682;2023-08-12T08:32:13;20.04;118.99
75217;HTU21D;63800;51.972;5.682;2023-08-12T08:34:38;20.27;118.99
75217;HTU21D;63800;51.972;5.682;2023-08-12T08:37:04;20.26;118.99
75217;HTU21D;63800;51.972;5.682;2023-08-12T08:39:29;20.24;118.99
75217;HTU21D;63800;51.972;5.682;2023-08-12T08:41:56;20.27;118.99
75217;HTU21D;63800;51.972;5.682;2023-08-12T08:44:22;19.88;118.99
75217;HTU21D;63800;51.972;5.682;2023-08-12T08:46:50;19.95;118.99
75217;HTU21D;63800;51.972;5.682;2023-08-12T08:49:17;20.09;118.99
75217;HTU21D;63800;51.972;5.682;2023-08-12T08:51:43;20.11;118.99
75217;HTU21D;63800;51.972;5.682;2023-08-12T08:54:11;20.11;118.99
75217;HTU21D;63800;51.972;5.682;2023-08-12T08:56:37;19.84;118.99
75217;HTU21D;63800;51.972;5.682;2023-08-12T08:59:03;19.95;118.99
75217;HTU21D;63800;51.972;5.682;2023-08-12T09:01:29;19.96;118.99
75217;HTU21D;63800;51.972;5.682;2023-08-12T09:03:57;20.05;118.99
75217;HTU21D;63800;51.972;5.682;2023-08-12T09:06:24;19.98;118.99
75217;HTU21D;63800;51.972;5.682;2023-08-12T09:08:51;20.09;118.99
75217;HTU21D;63800;51.972;5.682;2023-08-12T09:11:18;20.11;118.99
75217;HTU21D;63800;51.972;5.682;2023-08-12T09:13:45;20.25;118.99
75217;HTU21D;63800;51.972;5.682;2023-08-12T09:16:10;19.92;118.99
75217;HTU21D;63800;51.972;5.682;2023-08-12T09:18:37;19.98;118.99
75217;HTU21D;63800;51.972;5.682;2023-08-12T09:21:03;19.85;118.99
75217;HTU21D;63800;51.972;5.682;2023-08-12T09:23:40;20.02;118.99
75217;HTU21D;63800;51.972;5.682;2023-08-12T09:26:14;20.32;118.99
75217;HTU21D;63800;51.972;5.682;2023-08-12T09:28:40;20.54;118.99
75217;HTU21D;63800;51.972;5.682;2023-08-12T09:31:06;20.65;118.99
75217;HTU21D;63800;51.972;5.682;2023-08-12T09:33:32;21.02;118.99
75217;HTU21D;63800;51.972;5.682;2023-08-12T09:35:57;20.87;118.99
75217;HTU21D;63800;51.972;5.682;2023-08-12T09:38:23;20.99;118.99
75217;HTU21D;63800;51.972;5.682;2023-08-12T09:40:48;20.90;118.99
75217;HTU21D;63800;51.972;5.682;2023-08-12T09:43:14;20.98;118.99
75217;HTU21D;63800;51.972;5.682;2023-08-12T09:45:44;20.79;118.99
75217;HTU21D;63800;51.972;5.682;2023-08-12T09:48:10;21.01;118.99
75217;HTU21D;63800;51.972;5.682;2023-08-12T09:50:36;21.00;118.99
75217;HTU21D;63800;51.972;5.682;2023-08-12T09:53:01;21.18;118.99
75217;HTU21D;63800;51.972;5.682;2023-08-12T09:55:29;21.43;118.99
75217;HTU21D;63800;51.972;5.682;2023-08-12T09:57:56;21.63;118.99
75217;HTU21D;63800;51.972;5.682;2023-08-12T10:00:24;21.62;118.99
75217;HTU21D;63800;51.972;5.682;2023-08-12T10:02:52;21.19;118.99
75217;HTU21D;63800;51.972;5.682;2023-08-12T10:05:43;21.15;118.99
75217;HTU21D;63800;51.972;5.682;2023-08-12T10:08:10;20.70;118.99
75217;HTU21D;63800;51.972;5.682;2023-08-12T10:10:37;20.57;118.99
75217;HTU21D;63800;51.972;5.682;2023-08-12T10:13:03;20.37;118.99
75217;HTU21D;63800;51.972;5.682;2023-08-12T10:15:33;20.30;118.99
75217;HTU21D;63800;51.972;5.682;2023-08-12T10:17:58;19.73;118.99
75217;HTU21D;63800;51.972;5.682;2023-08-12T10:20:24;19.63;118.99
75217;HTU21D;63800;51.972;5.682;2023-08-12T10:22:51;19.80;118.99
75217;HTU21D;63800;51.972;5.682;2023-08-12T10:25:18;19.80;118.99
75217;HTU21D;63800;51.972;5.682;2023-08-12T10:27:44;19.88;118.99
75217;HTU21D;63800;51.972;5.682;2023-08-12T10:30:10;20.45;118.99
75217;HTU21D;63800;51.972;5.682;2023-08-12T10:32:38;20.95;118.99
75217;HTU21D;63800;51.972;5.682;2023-08-12T10:35:04;21.29;118.99
75217;HTU21D;63800;51.972;5.682;2023-08-12T10:37:34;21.53;118.99
75217;HTU21D;63800;51.972;5.682;2023-08-12T10:40:21;21.84;118.99
75217;HTU21D;63800;51.972;5.682;2023-08-12T10:42:48;22.43;118.99
75217;HTU21D;63800;51.972;5.682;2023-08-12T10:45:15;22.52;118.99
75217;HTU21D;63800;51.972;5.682;2023-08-12T10:47:42;21.85;118.99
75217;HTU21D;63800;51.972;5.682;2023-08-12T10:50:35;22.17;118.99
75217;HTU21D;63800;51.972;5.682;2023-08-12T10:53:27;22.42;118.99
75217;HTU21D;63800;51.972;5.682;2023-08-12T10:56:07;22.46;118.99
75217;HTU21D;63800;51.972;5.682;2023-08-12T10:58:46;22.75;118.99
75217;HTU21D;63800;51.972;5.682;2023-08-12T11:01:19;23.18;118.99
75217;HTU21D;63800;51.972;5.682;2023-08-12T11:03:45;23.61;118.99
75217;HTU21D;63800;51.972;5.682;2023-08-12T11:06:11;22.52;118.99
75217;HTU21D;63800;51.972;5.682;2023-08-12T11:08:46;22.52;118.99
75217;HTU21D;63800;51.972;5.682;2023-08-12T11:11:23;23.10;118.99
75217;HTU21D;63800;51.972;5.682;2023-08-12T11:14:14;22.61;118.99
75217;HTU21D;63800;51.972;5.682;2023-08-12T11:16:42;23.23;118.99
75217;HTU21D;63800;51.972;5.682;2023-08-12T11:19:08;23.66;118.99
75217;HTU21D;63800;51.972;5.682;2023-08-12T11:21:36;23.16;118.99
75217;HTU21D;63800;51.972;5.682;2023-08-12T11:24:02;23.55;118.99
75217;HTU21D;63800;51.972;5.682;2023-08-12T11:26:28;24.08;118.99
75217;HTU21D;63800;51.972;5.682;2023-08-12T11:28:53;23.95;118.99
75217;HTU21D;63800;51.972;5.682;2023-08-12T11:31:19;24.04;118.99
75217;HTU21D;63800;51.972;5.682;2023-08-12T11:33:44;24.88;118.99
75217;HTU21D;63800;51.972;5.682;2023-08-12T11:36:10;24.29;118.99
75217;HTU21D;63800;51.972;5.682;2023-08-12T11:38:37;24.05;118.99
75217;HTU21D;63800;51.972;5.682;2023-08-12T11:41:02;24.01;118.99
75217;HTU21D;63800;51.972;5.682;2023-08-12T11:43:28;24.12;118.99
75217;HTU21D;63800;51.972;5.682;2023-08-12T11:45:55;24.12;118.99
75217;HTU21D;63800;51.972;5.682;2023-08-12T11:48:21;24.09;118.99
75217;HTU21D;63800;51.972;5.682;2023-08-12T11:50:48;24.03;118.99
75217;HTU21D;63800;51.972;5.682;2023-08-12T11:53:14;24.04;118.99
75217;HTU21D;63800;51.972;5.682;2023-08-12T11:55:39;24.13;118.99
75217;HTU21D;63800;51.972;5.682;2023-08-12T11:58:05;24.25;118.99
75217;HTU21D;63800;51.972;5.682;2023-08-12T12:00:31;24.06;118.99
75217;HTU21D;63800;51.972;5.682;2023-08-12T12:02:58;24.00;118.99
75217;HTU21D;63800;51.972;5.682;2023-08-12T12:05:28;24.28;118.99
75217;HTU21D;63800;51.972;5.682;2023-08-12T12:07:54;24.32;118.99
75217;HTU21D;63800;51.972;5.682;2023-08-12T12:10:30;24.25;118.99
75217;HTU21D;63800;51.972;5.682;2023-08-12T12:12:56;24.41;118.99
75217;HTU21D;63800;51.972;5.682;2023-08-12T12:15:22;24.73;118.99
75217;HTU21D;63800;51.972;5.682;2023-08-12T12:17:49;25.17;118.99
75217;HTU21D;63800;51.972;5.682;2023-08-12T12:20:15;25.23;118.99
75217;HTU21D;63800;51.972;5.682;2023-08-12T12:22:42;26.20;118.99
75217;HTU21D;63800;51.972;5.682;2023-08-12T12:25:13;26.93;116.11
75217;HTU21D;63800;51.972;5.682;2023-08-12T12:27:39;26.25;118.99
75217;HTU21D;63800;51.972;5.682;2023-08-12T12:30:12;25.40;118.99
75217;HTU21D;63800;51.972;5.682;2023-08-12T12:32:38;25.01;118.99
75217;HTU21D;63800;51.972;5.682;2023-08-12T12:35:05;25.18;118.99
75217;HTU21D;63800;51.972;5.682;2023-08-12T12:37:32;25.12;118.99
75217;HTU21D;63800;51.972;5.682;2023-08-12T12:39:58;24.83;118.99
75217;HTU21D;63800;51.972;5.682;2023-08-12T12:42:23;25.22;115.06
75217;HTU21D;63800;51.972;5.682;2023-08-12T12:44:48;24.66;113.08
75217;HTU21D;63800;51.972;5.682;2023-08-12T12:47:14;24.70;118.50
75217;HTU21D;63800;51.972;5.682;2023-08-12T12:49:40;24.47;118.99
75217;HTU21D;63800;51.972;5.682;2023-08-12T12:52:06;24.51;118.93
75217;HTU21D;63800;51.972;5.682;2023-08-12T12:54:32;24.16;118.99
75217;HTU21D;63800;51.972;5.682;2023-08-12T12:56:57;24.18;118.99
75217;HTU21D;63800;51.972;5.682;2023-08-12T12:59:23;24.79;118.99
75217;HTU21D;63800;51.972;5.682;2023-08-12T13:01:49;24.47;118.99
75217;HTU21D;63800;51.972;5.682;2023-08-12T13:04:14;25.12;118.99
75217;HTU21D;63800;51.972;5.682;2023-08-12T13:06:40;25.45;116.08
75217;HTU21D;63800;51.972;5.682;2023-08-12T13:09:05;25.17;115.46
75217;HTU21D;63800;51.972;5.682;2023-08-12T13:11:32;25.44;109.59
75217;HTU21D;63800;51.972;5.682;2023-08-12T13:13:58;25.80;104.52
75217;HTU21D;63800;51.972;5.682;2023-08-12T13:16:24;25.93;105.31
75217;HTU21D;63800;51.972;5.682;2023-08-12T13:18:49;26.08;108.26
75217;HTU21D;63800;51.972;5.682;2023-08-12T13:21:15;26.70;113.55
75217;HTU21D;63800;51.972;5.682;2023-08-12T13:23:40;25.38;100.13
75217;HTU21D;63800;51.972;5.682;2023-08-12T13:26:05;26.23;97.35
75217;HTU21D;63800;51.972;5.682;2023-08-12T13:28:31;26.80;104.75
75217;HTU21D;63800;51.972;5.682;2023-08-12T13:30:56;26.98;100.10
75217;HTU21D;63800;51.972;5.682;2023-08-12T13:33:22;26.69;95.25
75217;HTU21D;63800;51.972;5.682;2023-08-12T13:35:47;26.35;85.47
75217;HTU21D;63800;51.972;5.682;2023-08-12T13:38:13;26.05;85.06
75217;HTU21D;63800;51.972;5.682;2023-08-12T13:40:38;26.05;84.54
75217;HTU21D;63800;51.972;5.682;2023-08-12T13:43:04;27.00;81.04
75217;HTU21D;63800;51.972;5.682;2023-08-12T13:45:29;26.77;84.84
75217;HTU21D;63800;51.972;5.682;2023-08-12T13:47:55;26.28;84.89
75217;HTU21D;63800;51.972;5.682;2023-08-12T13:50:20;25.64;90.55
75217;HTU21D;63800;51.972;5.682;2023-08-12T13:52:46;24.45;98.70
75217;HTU21D;63800;51.972;5.682;2023-08-12T13:55:12;25.23;97.58
75217;HTU21D;63800;51.972;5.682;2023-08-12T13:57:37;25.35;97.63
75217;HTU21D;63800;51.972;5.682;2023-08-12T14:00:03;25.69;98.95
75217;HTU21D;63800;51.972;5.682;2023-08-12T14:02:35;26.40;89.23
75217;HTU21D;63800;51.972;5.682;2023-08-12T14:05:00;26.17;83.66
75217;HTU21D;63800;51.972;5.682;2023-08-12T14:07:26;26.62;80.73
75217;HTU21D;63800;51.972;5.682;2023-08-12T14:09:51;25.73;87.67
75217;HTU21D;63800;51.972;5.682;2023-08-12T14:12:17;26.04;88.64
75217;HTU21D;63800;51.972;5.682;2023-08-12T14:14:42;26.81;78.83
75217;HTU21D;63800;51.972;5.682;2023-08-12T14:17:08;26.80;79.10
75217;HTU21D;63800;51.972;5.682;2023-08-12T14:19:38;26.51;80.97
75217;HTU21D;63800;51.972;5.682;2023-08-12T14:22:03;26.51;95.18
75217;HTU21D;63800;51.972;5.682;2023-08-12T14:24:29;26.17;84.90
75217;HTU21D;63800;51.972;5.682;2023-08-12T14:26:54;26.58;75.75
75217;HTU21D;63800;51.972;5.682;2023-08-12T14:29:20;26.24;73.82
75217;HTU21D;63800;51.972;5.682;2023-08-12T14:31:45;26.60;75.71
75217;HTU21D;63800;51.972;5.682;2023-08-12T14:34:11;27.23;78.30
75217;HTU21D;63800;51.972;5.682;2023-08-12T14:36:36;26.80;71.77
75217;HTU21D;63800;51.972;5.682;2023-08-12T14:39:01;27.05;78.02
75217;HTU21D;63800;51.972;5.682;2023-08-12T14:41:27;27.21;78.63
75217;HTU21D;63800;51.972;5.682;2023-08-12T14:43:52;26.46;76.82
75217;HTU21D;63800;51.972;5.682;2023-08-12T14:46:18;26.57;79.33
75217;HTU21D;63800;51.972;5.682;2023-08-12T14:48:43;26.50;83.39
75217;HTU21D;63800;51.972;5.682;2023-08-12T14:51:09;26.67;78.61
75217;HTU21D;63800;51.972;5.682;2023-08-12T14:53:34;26.60;79.28
75217;HTU21D;63800;51.972;5.682;2023-08-12T14:55:59;25.87;83.52
75217;HTU21D;63800;51.972;5.682;2023-08-12T14:58:26;25.90;81.04
75217;HTU21D;63800;51.972;5.682;2023-08-12T15:00:51;26.04;84.90